Terminal Aerodrome Forecast
Issued by NWS

Home | Current Version | Previous Version | Graphics & Text | Print | Product List | Glossary On
Versions: 1 2 3 4 5 6 7 8 9 10 11 12 13 14 15 16 17 18 19 20 21 22 23 24 25 26 27 28 29
000
FTUS43 KLOT 150921 AAA
TAFMDW
TAF AMD
KMDW 150921Z 1509/1606 25004KT P6SM FEW060 BKN070
     FM151200 30004KT P6SM SCT035
     FM151600 01007KT P6SM SCT040
     FM151900 04009KT P6SM BKN050
     FM160300 03006KT P6SM SCT040=

USA.gov is the U.S. government's official web portal to all federal, state and local government web resources and services.